sensor_id;sensor_type;location;lat;lon;timestamp;pressure;altitude;pressure_sealevel;temperature;humidity
76464;BME280;65301;46.666;20.110;2022-12-18T00:02:26;102231.75;;;0.51;75.23
76464;BME280;65301;46.666;20.110;2022-12-18T00:05:28;102229.59;;;0.61;74.12
76464;BME280;65301;46.666;20.110;2022-12-18T00:08:30;102237.38;;;0.61;74.61
76464;BME280;65301;46.666;20.110;2022-12-18T00:11:32;102240.19;;;0.66;74.45
76464;BME280;65301;46.666;20.110;2022-12-18T00:14:33;102247.19;;;0.66;74.73
76464;BME280;65301;46.666;20.110;2022-12-18T00:17:35;102261.81;;;0.67;75.31
76464;BME280;65301;46.666;20.110;2022-12-18T00:20:38;102262.00;;;0.72;75.02
76464;BME280;65301;46.666;20.110;2022-12-18T00:23:42;102273.22;;;0.79;74.68
76464;BME280;65301;46.666;20.110;2022-12-18T00:26:44;102273.63;;;0.83;74.79
76464;BME280;65301;46.666;20.110;2022-12-18T00:29:46;102274.59;;;0.75;74.87
76464;BME280;65301;46.666;20.110;2022-12-18T00:32:49;102284.81;;;0.83;75.37
76464;BME280;65301;46.666;20.110;2022-12-18T00:35:50;102286.03;;;0.81;75.03
76464;BME280;65301;46.666;20.110;2022-12-18T00:38:53;102303.63;;;0.85;74.93
76464;BME280;65301;46.666;20.110;2022-12-18T00:41:55;102303.25;;;0.88;75.19
76464;BME280;65301;46.666;20.110;2022-12-18T00:45:16;102315.22;;;0.83;75.04
76464;BME280;65301;46.666;20.110;2022-12-18T00:48:17;102310.03;;;0.83;74.97
76464;BME280;65301;46.666;20.110;2022-12-18T00:51:19;102319.63;;;0.82;75.53
76464;BME280;65301;46.666;20.110;2022-12-18T00:54:21;102318.41;;;0.78;76.15
76464;BME280;65301;46.666;20.110;2022-12-18T00:57:24;102326.66;;;0.82;75.58
76464;BME280;65301;46.666;20.110;2022-12-18T01:00:26;102331.25;;;0.86;75.63
76464;BME280;65301;46.666;20.110;2022-12-18T01:03:27;102335.44;;;0.81;75.76
76464;BME280;65301;46.666;20.110;2022-12-18T01:06:29;102346.44;;;0.83;76.50
76464;BME280;65301;46.666;20.110;2022-12-18T01:09:31;102343.44;;;0.79;76.70
76464;BME280;65301;46.666;20.110;2022-12-18T01:12:33;102347.06;;;0.91;76.02
76464;BME280;65301;46.666;20.110;2022-12-18T01:15:34;102357.06;;;0.88;76.74
76464;BME280;65301;46.666;20.110;2022-12-18T01:18:36;102363.44;;;0.85;76.49
76464;BME280;65301;46.666;20.110;2022-12-18T01:21:37;102358.25;;;0.85;76.35
76464;BME280;65301;46.666;20.110;2022-12-18T01:24:39;102365.06;;;0.93;76.77
76464;BME280;65301;46.666;20.110;2022-12-18T01:27:41;102366.28;;;0.97;76.81
76464;BME280;65301;46.666;20.110;2022-12-18T01:30:43;102367.69;;;0.99;76.42
76464;BME280;65301;46.666;20.110;2022-12-18T01:33:45;102365.28;;;0.98;76.40
76464;BME280;65301;46.666;20.110;2022-12-18T01:36:46;102364.09;;;0.94;76.58
76464;BME280;65301;46.666;20.110;2022-12-18T01:39:48;102362.47;;;0.93;76.22
76464;BME280;65301;46.666;20.110;2022-12-18T01:42:51;102358.88;;;0.94;76.53
76464;BME280;65301;46.666;20.110;2022-12-18T01:45:53;102365.69;;;1.01;76.23
76464;BME280;65301;46.666;20.110;2022-12-18T01:49:00;102371.53;;;1.03;76.56
76464;BME280;65301;46.666;20.110;2022-12-18T01:52:03;102375.09;;;1.02;76.24
76464;BME280;65301;46.666;20.110;2022-12-18T01:55:06;102380.91;;;1.04;76.79
76464;BME280;65301;46.666;20.110;2022-12-18T01:58:08;102383.91;;;1.01;77.66
76464;BME280;65301;46.666;20.110;2022-12-18T02:01:10;102381.72;;;0.98;76.78
76464;BME280;65301;46.666;20.110;2022-12-18T02:04:30;102392.94;;;0.99;77.03
76464;BME280;65301;46.666;20.110;2022-12-18T02:07:42;102393.69;;;0.93;77.10
76464;BME280;65301;46.666;20.110;2022-12-18T02:11:08;102402.53;;;1.05;76.70
76464;BME280;65301;46.666;20.110;2022-12-18T02:17:42;102405.53;;;1.02;77.42
76464;BME280;65301;46.666;20.110;2022-12-18T02:24:29;102417.13;;;0.99;78.31
76464;BME280;65301;46.666;20.110;2022-12-18T02:27:37;102406.88;;;0.85;78.18
76464;BME280;65301;46.666;20.110;2022-12-18T02:30:42;102426.09;;;0.84;78.44
76464;BME280;65301;46.666;20.110;2022-12-18T02:33:44;102430.50;;;0.90;78.55
76464;BME280;65301;46.666;20.110;2022-12-18T02:36:47;102429.06;;;0.87;77.94
76464;BME280;65301;46.666;20.110;2022-12-18T02:39:51;102417.69;;;0.88;77.86
76464;BME280;65301;46.666;20.110;2022-12-18T02:42:54;102420.19;;;0.62;78.49
76464;BME280;65301;46.666;20.110;2022-12-18T02:45:58;102423.41;;;0.71;78.75
76464;BME280;65301;46.666;20.110;2022-12-18T03:05:41;102454.59;;;0.64;80.04
76464;BME280;65301;46.666;20.110;2022-12-18T03:08:48;102467.56;;;0.57;80.26
76464;BME280;65301;46.666;20.110;2022-12-18T03:12:04;102470.44;;;0.41;80.07
76464;BME280;65301;46.666;20.110;2022-12-18T03:15:28;102475.22;;;0.31;81.70
76464;BME280;65301;46.666;20.110;2022-12-18T03:18:43;102477.75;;;0.25;82.00
76464;BME280;65301;46.666;20.110;2022-12-18T03:21:49;102475.75;;;0.27;80.95
76464;BME280;65301;46.666;20.110;2022-12-18T03:24:54;102475.31;;;0.17;81.58
76464;BME280;65301;46.666;20.110;2022-12-18T03:27:59;102465.25;;;0.07;83.18
76464;BME280;65301;46.666;20.110;2022-12-18T03:31:04;102478.28;;;0.14;81.83
76464;BME280;65301;46.666;20.110;2022-12-18T03:34:16;102488.22;;;0.10;81.80
76464;BME280;65301;46.666;20.110;2022-12-18T03:37:21;102492.06;;;-0.07;82.84
76464;BME280;65301;46.666;20.110;2022-12-18T03:40:27;102501.34;;;-0.19;83.14
76464;BME280;65301;46.666;20.110;2022-12-18T03:43:51;102502.84;;;-0.31;83.90
76464;BME280;65301;46.666;20.110;2022-12-18T03:47:14;102504.56;;;-0.38;84.05
76464;BME280;65301;46.666;20.110;2022-12-18T03:50:24;102512.66;;;-0.48;84.43
76464;BME280;65301;46.666;20.110;2022-12-18T03:53:46;102513.41;;;-0.54;84.71
76464;BME280;65301;46.666;20.110;2022-12-18T03:56:56;102510.34;;;-0.57;84.61
76464;BME280;65301;46.666;20.110;2022-12-18T04:00:07;102518.25;;;-0.65;84.20
76464;BME280;65301;46.666;20.110;2022-12-18T04:03:10;102519.78;;;-0.71;84.49
76464;BME280;65301;46.666;20.110;2022-12-18T04:06:13;102532.16;;;-0.73;85.53
76464;BME280;65301;46.666;20.110;2022-12-18T04:09:16;102536.53;;;-0.74;84.65
76464;BME280;65301;46.666;20.110;2022-12-18T04:12:18;102529.09;;;-0.77;84.33
76464;BME280;65301;46.666;20.110;2022-12-18T04:15:20;102537.06;;;-0.78;84.48
76464;BME280;65301;46.666;20.110;2022-12-18T04:18:21;102548.16;;;-0.84;84.48
76464;BME280;65301;46.666;20.110;2022-12-18T04:21:23;102547.88;;;-0.89;85.96
76464;BME280;65301;46.666;20.110;2022-12-18T04:24:24;102549.25;;;-0.93;85.17
76464;BME280;65301;46.666;20.110;2022-12-18T04:27:26;102547.19;;;-0.98;85.84
76464;BME280;65301;46.666;20.110;2022-12-18T04:30:28;102555.78;;;-0.97;85.20
76464;BME280;65301;46.666;20.110;2022-12-18T04:33:30;102556.94;;;-1.00;84.95
76464;BME280;65301;46.666;20.110;2022-12-18T04:36:32;102560.16;;;-0.98;85.76
76464;BME280;65301;46.666;20.110;2022-12-18T04:39:34;102565.00;;;-1.09;85.34
76464;BME280;65301;46.666;20.110;2022-12-18T04:42:37;102567.13;;;-1.13;85.71
76464;BME280;65301;46.666;20.110;2022-12-18T04:45:40;102561.75;;;-1.26;86.76
76464;BME280;65301;46.666;20.110;2022-12-18T04:48:41;102562.38;;;-1.24;85.76
76464;BME280;65301;46.666;20.110;2022-12-18T04:51:43;102569.63;;;-1.19;85.87
76464;BME280;65301;46.666;20.110;2022-12-18T04:54:45;102575.34;;;-1.24;85.87
76464;BME280;65301;46.666;20.110;2022-12-18T04:57:46;102588.66;;;-1.27;85.12
76464;BME280;65301;46.666;20.110;2022-12-18T05:00:48;102594.38;;;-1.31;85.55
76464;BME280;65301;46.666;20.110;2022-12-18T05:03:51;102596.06;;;-1.39;86.17
76464;BME280;65301;46.666;20.110;2022-12-18T05:06:53;102604.38;;;-1.43;85.74
76464;BME280;65301;46.666;20.110;2022-12-18T05:09:54;102612.47;;;-1.46;86.18
76464;BME280;65301;46.666;20.110;2022-12-18T05:12:56;102623.13;;;-1.41;85.77
76464;BME280;65301;46.666;20.110;2022-12-18T05:16:02;102628.13;;;-1.40;86.82
76464;BME280;65301;46.666;20.110;2022-12-18T05:19:04;102623.13;;;-1.41;86.59
76464;BME280;65301;46.666;20.110;2022-12-18T05:22:05;102622.22;;;-1.48;87.95
76464;BME280;65301;46.666;20.110;2022-12-18T05:25:08;102635.91;;;-1.40;87.89
76464;BME280;65301;46.666;20.110;2022-12-18T05:28:10;102642.09;;;-1.41;87.38
76464;BME280;65301;46.666;20.110;2022-12-18T05:31:11;102648.72;;;-1.38;86.82
76464;BME280;65301;46.666;20.110;2022-12-18T05:34:13;102645.13;;;-1.37;87.53
76464;BME280;65301;46.666;20.110;2022-12-18T05:37:15;102656.25;;;-1.28;86.28
76464;BME280;65301;46.666;20.110;2022-12-18T05:40:18;102656.53;;;-1.23;85.76
76464;BME280;65301;46.666;20.110;2022-12-18T05:43:20;102663.00;;;-1.27;87.25
76464;BME280;65301;46.666;20.110;2022-12-18T05:46:26;102659.16;;;-1.31;86.61
76464;BME280;65301;46.666;20.110;2022-12-18T05:49:28;102665.38;;;-1.18;85.91
76464;BME280;65301;46.666;20.110;2022-12-18T05:52:30;102673.31;;;-1.19;86.42
76464;BME280;65301;46.666;20.110;2022-12-18T05:55:35;102674.13;;;-1.19;85.94
76464;BME280;65301;46.666;20.110;2022-12-18T05:58:38;102674.53;;;-1.30;86.60
76464;BME280;65301;46.666;20.110;2022-12-18T06:01:40;102679.84;;;-1.23;85.97
76464;BME280;65301;46.666;20.110;2022-12-18T06:04:42;102685.28;;;-1.33;85.93
76464;BME280;65301;46.666;20.110;2022-12-18T06:07:44;102684.47;;;-1.33;86.07
76464;BME280;65301;46.666;20.110;2022-12-18T06:10:50;102686.47;;;-1.44;86.87
76464;BME280;65301;46.666;20.110;2022-12-18T06:13:55;102692.81;;;-1.46;85.94
76464;BME280;65301;46.666;20.110;2022-12-18T06:16:59;102693.84;;;-1.55;86.57
76464;BME280;65301;46.666;20.110;2022-12-18T06:20:02;102701.16;;;-1.59;85.18
76464;BME280;65301;46.666;20.110;2022-12-18T06:23:04;102706.91;;;-1.71;86.47
76464;BME280;65301;46.666;20.110;2022-12-18T06:26:08;102708.69;;;-1.72;85.14
76464;BME280;65301;46.666;20.110;2022-12-18T06:29:09;102714.22;;;-1.75;85.98
76464;BME280;65301;46.666;20.110;2022-12-18T06:32:11;102717.91;;;-1.69;85.13
76464;BME280;65301;46.666;20.110;2022-12-18T06:35:13;102716.81;;;-1.75;85.90
76464;BME280;65301;46.666;20.110;2022-12-18T06:38:16;102713.09;;;-1.80;85.29
76464;BME280;65301;46.666;20.110;2022-12-18T06:41:19;102728.31;;;-1.77;85.87
76464;BME280;65301;46.666;20.110;2022-12-18T06:44:22;102726.19;;;-1.74;85.72
76464;BME280;65301;46.666;20.110;2022-12-18T06:47:23;102730.16;;;-1.63;86.14
76464;BME280;65301;46.666;20.110;2022-12-18T06:50:25;102738.88;;;-1.56;85.85
76464;BME280;65301;46.666;20.110;2022-12-18T06:53:27;102745.78;;;-1.49;86.28
76464;BME280;65301;46.666;20.110;2022-12-18T06:56:30;102755.00;;;-1.46;85.69
76464;BME280;65301;46.666;20.110;2022-12-18T06:59:32;102761.81;;;-1.45;85.58
76464;BME280;65301;46.666;20.110;2022-12-18T07:02:34;102761.34;;;-1.49;85.71
76464;BME280;65301;46.666;20.110;2022-12-18T07:05:40;102772.00;;;-1.44;85.30
76464;BME280;65301;46.666;20.110;2022-12-18T07:08:42;102779.56;;;-1.34;84.97
76464;BME280;65301;46.666;20.110;2022-12-18T07:11:44;102787.00;;;-1.31;85.34
76464;BME280;65301;46.666;20.110;2022-12-18T07:14:45;102794.78;;;-1.31;85.12
76464;BME280;65301;46.666;20.110;2022-12-18T07:17:47;102784.56;;;-1.33;84.55
76464;BME280;65301;46.666;20.110;2022-12-18T07:20:48;102793.56;;;-1.20;84.01
76464;BME280;65301;46.666;20.110;2022-12-18T07:23:50;102794.91;;;-1.02;83.67
76464;BME280;65301;46.666;20.110;2022-12-18T07:26:52;102804.63;;;-0.81;82.61
76464;BME280;65301;46.666;20.110;2022-12-18T07:29:54;102806.03;;;-0.56;82.63
76464;BME280;65301;46.666;20.110;2022-12-18T07:32:56;102809.38;;;-0.33;81.01
76464;BME280;65301;46.666;20.110;2022-12-18T07:36:02;102811.66;;;-0.01;79.88
76464;BME280;65301;46.666;20.110;2022-12-18T07:39:05;102824.09;;;0.04;79.85
76464;BME280;65301;46.666;20.110;2022-12-18T07:42:06;102826.34;;;0.22;78.08
76464;BME280;65301;46.666;20.110;2022-12-18T07:45:27;102835.44;;;0.47;77.44
76464;BME280;65301;46.666;20.110;2022-12-18T07:48:30;102831.56;;;0.57;76.83
76464;BME280;65301;46.666;20.110;2022-12-18T07:51:32;102845.50;;;0.71;76.23
76464;BME280;65301;46.666;20.110;2022-12-18T07:54:34;102847.09;;;1.08;75.48
76464;BME280;65301;46.666;20.110;2022-12-18T07:57:35;102847.88;;;1.51;73.87
76464;BME280;65301;46.666;20.110;2022-12-18T08:04:06;102859.81;;;1.94;71.38
76464;BME280;65301;46.666;20.110;2022-12-18T08:07:08;102860.03;;;1.99;71.90
76464;BME280;65301;46.666;20.110;2022-12-18T08:10:10;102866.59;;;2.23;70.77
76464;BME280;65301;46.666;20.110;2022-12-18T08:13:11;102863.44;;;2.88;69.39
76464;BME280;65301;46.666;20.110;2022-12-18T08:16:13;102868.34;;;3.43;67.00
76464;BME280;65301;46.666;20.110;2022-12-18T08:19:15;102875.09;;;4.16;64.74
76464;BME280;65301;46.666;20.110;2022-12-18T08:22:16;102884.94;;;4.34;64.19
76464;BME280;65301;46.666;20.110;2022-12-18T08:25:18;102881.63;;;4.58;63.96
76464;BME280;65301;46.666;20.110;2022-12-18T08:28:20;102892.19;;;4.19;64.52
76464;BME280;65301;46.666;20.110;2022-12-18T08:31:22;102895.47;;;3.75;66.11
76464;BME280;65301;46.666;20.110;2022-12-18T08:34:25;102894.84;;;3.27;68.40
76464;BME280;65301;46.666;20.110;2022-12-18T08:37:26;102898.44;;;3.19;68.39
76464;BME280;65301;46.666;20.110;2022-12-18T08:40:28;102899.09;;;3.48;66.88
76464;BME280;65301;46.666;20.110;2022-12-18T08:43:30;102907.09;;;3.33;69.20
76464;BME280;65301;46.666;20.110;2022-12-18T08:46:49;102911.16;;;3.49;68.52
76464;BME280;65301;46.666;20.110;2022-12-18T08:49:51;102906.94;;;3.80;67.48
76464;BME280;65301;46.666;20.110;2022-12-18T08:52:53;102899.09;;;3.41;68.56
76464;BME280;65301;46.666;20.110;2022-12-18T08:55:56;102890.84;;;3.37;68.11
76464;BME280;65301;46.666;20.110;2022-12-18T08:58:58;102908.50;;;3.35;68.51
76464;BME280;65301;46.666;20.110;2022-12-18T09:02:00;102910.91;;;3.24;69.59
76464;BME280;65301;46.666;20.110;2022-12-18T09:05:02;102925.97;;;3.22;70.20
76464;BME280;65301;46.666;20.110;2022-12-18T09:08:04;102915.78;;;3.79;68.02
76464;BME280;65301;46.666;20.110;2022-12-18T09:11:12;102912.22;;;4.51;65.78
76464;BME280;65301;46.666;20.110;2022-12-18T09:14:14;102920.25;;;4.56;64.87
76464;BME280;65301;46.666;20.110;2022-12-18T09:17:16;102931.00;;;4.35;65.55
76464;BME280;65301;46.666;20.110;2022-12-18T09:20:18;102929.81;;;4.31;65.52
76464;BME280;65301;46.666;20.110;2022-12-18T09:23:21;102916.06;;;4.48;65.85
76464;BME280;65301;46.666;20.110;2022-12-18T09:26:24;102918.19;;;5.09;63.39
76464;BME280;65301;46.666;20.110;2022-12-18T09:29:26;102913.53;;;5.73;60.24
76464;BME280;65301;46.666;20.110;2022-12-18T09:32:28;102929.72;;;6.13;59.93
76464;BME280;65301;46.666;20.110;2022-12-18T09:35:30;102926.66;;;6.70;58.25
76464;BME280;65301;46.666;20.110;2022-12-18T09:38:33;102924.69;;;7.14;57.13
76464;BME280;65301;46.666;20.110;2022-12-18T09:41:50;102925.94;;;7.64;54.54
76464;BME280;65301;46.666;20.110;2022-12-18T09:44:54;102921.16;;;7.50;54.65
76464;BME280;65301;46.666;20.110;2022-12-18T09:47:56;102921.28;;;7.89;55.29
76464;BME280;65301;46.666;20.110;2022-12-18T09:51:03;102926.22;;;8.09;54.66
76464;BME280;65301;46.666;20.110;2022-12-18T09:54:12;102921.97;;;7.73;54.36
76464;BME280;65301;46.666;20.110;2022-12-18T09:57:19;102918.03;;;7.53;55.28
76464;BME280;65301;46.666;20.110;2022-12-18T10:00:23;102918.66;;;7.78;53.95
76464;BME280;65301;46.666;20.110;2022-12-18T10:03:25;102918.31;;;8.09;53.86
76464;BME280;65301;46.666;20.110;2022-12-18T10:06:54;102916.78;;;8.25;53.39
76464;BME280;65301;46.666;20.110;2022-12-18T10:10:10;102909.59;;;8.20;55.01
76464;BME280;65301;46.666;20.110;2022-12-18T10:13:26;102903.69;;;8.93;51.57
76464;BME280;65301;46.666;20.110;2022-12-18T10:17:19;102909.75;;;9.21;51.81
76464;BME280;65301;46.666;20.110;2022-12-18T10:23:32;102904.50;;;10.69;46.07
76464;BME280;65301;46.666;20.110;2022-12-18T10:26:35;102902.00;;;11.43;45.19
76464;BME280;65301;46.666;20.110;2022-12-18T10:29:37;102898.78;;;12.10;41.90
76464;BME280;65301;46.666;20.110;2022-12-18T10:32:39;102904.31;;;12.08;42.75
76464;BME280;65301;46.666;20.110;2022-12-18T10:35:41;102899.31;;;12.12;42.80
76464;BME280;65301;46.666;20.110;2022-12-18T10:38:43;102889.13;;;12.45;41.99
76464;BME280;65301;46.666;20.110;2022-12-18T10:41:45;102892.03;;;12.49;42.44
76464;BME280;65301;46.666;20.110;2022-12-18T10:45:01;102873.19;;;12.40;41.91
76464;BME280;65301;46.666;20.110;2022-12-18T10:48:03;102879.38;;;12.76;41.07
76464;BME280;65301;46.666;20.110;2022-12-18T10:51:06;102877.13;;;12.33;40.62
76464;BME280;65301;46.666;20.110;2022-12-18T10:54:22;102883.88;;;12.60;40.32
76464;BME280;65301;46.666;20.110;2022-12-18T10:57:33;102882.31;;;13.00;39.47
76464;BME280;65301;46.666;20.110;2022-12-18T11:00:35;102882.91;;;12.15;42.12
76464;BME280;65301;46.666;20.110;2022-12-18T11:03:40;102897.03;;;11.83;42.70
76464;BME280;65301;46.666;20.110;2022-12-18T11:07:04;102883.22;;;12.28;40.36
76464;BME280;65301;46.666;20.110;2022-12-18T11:10:16;102881.94;;;12.41;37.94
76464;BME280;65301;46.666;20.110;2022-12-18T11:13:21;102879.50;;;12.24;38.22
76464;BME280;65301;46.666;20.110;2022-12-18T11:16:23;102876.34;;;12.32;37.55
76464;BME280;65301;46.666;20.110;2022-12-18T11:19:34;102878.84;;;11.97;38.48
76464;BME280;65301;46.666;20.110;2022-12-18T11:22:37;102877.41;;;11.48;39.55
76464;BME280;65301;46.666;20.110;2022-12-18T11:25:50;102872.09;;;11.79;40.20
76464;BME280;65301;46.666;20.110;2022-12-18T11:29:08;102883.91;;;11.30;40.14
76464;BME280;65301;46.666;20.110;2022-12-18T11:32:26;102897.69;;;10.79;41.30
76464;BME280;65301;46.666;20.110;2022-12-18T11:35:42;102901.69;;;11.08;42.09
76464;BME280;65301;46.666;20.110;2022-12-18T11:38:47;102890.97;;;11.88;39.30
76464;BME280;65301;46.666;20.110;2022-12-18T11:41:56;102893.53;;;12.25;38.07
76464;BME280;65301;46.666;20.110;2022-12-18T11:48:24;102909.38;;;13.02;37.30
76464;BME280;65301;46.666;20.110;2022-12-18T11:51:34;102898.78;;;12.97;36.95
76464;BME280;65301;46.666;20.110;2022-12-18T11:54:38;102898.25;;;13.85;35.90
76464;BME280;65301;46.666;20.110;2022-12-18T12:21:40;102889.38;;;14.79;31.90
76464;BME280;65301;46.666;20.110;2022-12-18T12:38:51;102867.69;;;14.57;33.06
76464;BME280;65301;46.666;20.110;2022-12-18T12:41:57;102859.88;;;14.70;33.12
76464;BME280;65301;46.666;20.110;2022-12-18T12:45:26;102872.00;;;13.74;34.45
76464;BME280;65301;46.666;20.110;2022-12-18T12:48:49;102863.75;;;14.49;33.17
76464;BME280;65301;46.666;20.110;2022-12-18T12:51:58;102878.41;;;14.42;32.97
76464;BME280;65301;46.666;20.110;2022-12-18T12:55:04;102870.44;;;13.27;34.93
76464;BME280;65301;46.666;20.110;2022-12-18T12:58:22;102883.66;;;12.82;35.83
76464;BME280;65301;46.666;20.110;2022-12-18T13:01:57;102882.66;;;13.08;35.07
76464;BME280;65301;46.666;20.110;2022-12-18T13:05:14;102891.56;;;12.62;36.21
76464;BME280;65301;46.666;20.110;2022-12-18T13:08:28;102892.41;;;12.98;36.04
76464;BME280;65301;46.666;20.110;2022-12-18T13:15:21;102899.63;;;13.17;33.37
76464;BME280;65301;46.666;20.110;2022-12-18T13:18:24;102908.59;;;12.14;35.16
76464;BME280;65301;46.666;20.110;2022-12-18T13:21:30;102911.31;;;10.92;39.00
76464;BME280;65301;46.666;20.110;2022-12-18T13:24:32;102914.56;;;9.58;42.64
76464;BME280;65301;46.666;20.110;2022-12-18T13:30:42;102921.28;;;8.01;45.71
76464;BME280;65301;46.666;20.110;2022-12-18T13:33:46;102919.53;;;7.49;47.96
76464;BME280;65301;46.666;20.110;2022-12-18T13:44:11;102938.84;;;7.01;49.57
76464;BME280;65301;46.666;20.110;2022-12-18T13:47:34;102934.25;;;7.38;47.79
76464;BME280;65301;46.666;20.110;2022-12-18T13:50:39;102935.53;;;7.47;48.99
76464;BME280;65301;46.666;20.110;2022-12-18T13:53:48;102956.06;;;7.27;49.54
76464;BME280;65301;46.666;20.110;2022-12-18T13:56:51;102954.69;;;6.58;51.57
76464;BME280;65301;46.666;20.110;2022-12-18T13:59:53;102956.50;;;6.40;51.88
76464;BME280;65301;46.666;20.110;2022-12-18T14:02:56;102958.19;;;6.34;52.72
76464;BME280;65301;46.666;20.110;2022-12-18T14:06:10;102961.78;;;6.15;52.34
76464;BME280;65301;46.666;20.110;2022-12-18T14:09:24;102959.78;;;5.92;54.69
76464;BME280;65301;46.666;20.110;2022-12-18T14:12:30;102965.25;;;5.60;55.03
76464;BME280;65301;46.666;20.110;2022-12-18T14:15:52;102972.34;;;5.21;57.12
76464;BME280;65301;46.666;20.110;2022-12-18T14:18:56;102972.28;;;4.90;57.89
76464;BME280;65301;46.666;20.110;2022-12-18T14:22:21;102974.59;;;4.67;59.13
76464;BME280;65301;46.666;20.110;2022-12-18T14:25:30;102977.25;;;4.47;60.31
76464;BME280;65301;46.666;20.110;2022-12-18T14:28:32;102985.16;;;4.21;61.44
76464;BME280;65301;46.666;20.110;2022-12-18T14:31:34;102989.38;;;4.16;61.45
76464;BME280;65301;46.666;20.110;2022-12-18T14:34:39;102993.19;;;4.07;62.02
76464;BME280;65301;46.666;20.110;2022-12-18T14:37:41;103005.28;;;3.94;62.19
76464;BME280;65301;46.666;20.110;2022-12-18T14:40:43;102999.81;;;3.76;63.76
76464;BME280;65301;46.666;20.110;2022-12-18T14:43:47;103003.22;;;3.64;64.56
76464;BME280;65301;46.666;20.110;2022-12-18T14:46:50;102996.56;;;3.55;64.92
76464;BME280;65301;46.666;20.110;2022-12-18T14:49:52;102989.69;;;3.41;65.43
76464;BME280;65301;46.666;20.110;2022-12-18T14:52:53;102998.50;;;3.26;65.33
76464;BME280;65301;46.666;20.110;2022-12-18T14:55:55;102997.06;;;3.17;65.93
76464;BME280;65301;46.666;20.110;2022-12-18T14:59:14;103007.59;;;2.90;68.33
76464;BME280;65301;46.666;20.110;2022-12-18T15:02:26;103002.81;;;2.59;69.75
76464;BME280;65301;46.666;20.110;2022-12-18T15:05:30;103010.94;;;2.43;70.89
76464;BME280;65301;46.666;20.110;2022-12-18T15:08:36;103012.50;;;2.37;71.33
76464;BME280;65301;46.666;20.110;2022-12-18T15:14:43;103010.75;;;2.17;72.07
76464;BME280;65301;46.666;20.110;2022-12-18T15:17:45;103019.16;;;2.12;71.23
76464;BME280;65301;46.666;20.110;2022-12-18T15:20:52;103013.31;;;1.89;72.69
76464;BME280;65301;46.666;20.110;2022-12-18T15:23:54;103022.25;;;1.80;73.90
76464;BME280;65301;46.666;20.110;2022-12-18T15:26:57;103002.84;;;1.61;76.14
76464;BME280;65301;46.666;20.110;2022-12-18T15:33:23;103020.72;;;1.50;74.93
76464;BME280;65301;46.666;20.110;2022-12-18T15:36:28;103029.38;;;1.35;75.14
76464;BME280;65301;46.666;20.110;2022-12-18T15:39:31;103044.03;;;1.37;75.42
76464;BME280;65301;46.666;20.110;2022-12-18T15:42:33;103044.19;;;1.35;75.90
76464;BME280;65301;46.666;20.110;2022-12-18T15:45:54;103045.41;;;1.32;75.27
76464;BME280;65301;46.666;20.110;2022-12-18T15:48:57;103060.09;;;1.25;76.56
76464;BME280;65301;46.666;20.110;2022-12-18T15:52:04;103056.81;;;1.17;76.95
76464;BME280;65301;46.666;20.110;2022-12-18T15:55:16;103048.47;;;1.07;77.38
76464;BME280;65301;46.666;20.110;2022-12-18T15:58:37;103055.63;;;0.90;78.44
76464;BME280;65301;46.666;20.110;2022-12-18T16:01:41;103058.50;;;0.81;79.12
76464;BME280;65301;46.666;20.110;2022-12-18T16:04:43;103065.69;;;0.79;78.49
76464;BME280;65301;46.666;20.110;2022-12-18T16:07:47;103071.88;;;0.78;77.42
76464;BME280;65301;46.666;20.110;2022-12-18T16:10:49;103081.09;;;0.80;77.62
76464;BME280;65301;46.666;20.110;2022-12-18T16:13:52;103087.31;;;0.79;77.97
76464;BME280;65301;46.666;20.110;2022-12-18T16:16:56;103088.81;;;0.74;77.19
76464;BME280;65301;46.666;20.110;2022-12-18T16:19:59;103084.41;;;0.59;77.56
76464;BME280;65301;46.666;20.110;2022-12-18T16:23:01;103085.19;;;0.45;78.85
76464;BME280;65301;46.666;20.110;2022-12-18T16:26:03;103096.22;;;0.47;78.19
76464;BME280;65301;46.666;20.110;2022-12-18T16:29:06;103103.38;;;0.45;77.70
76464;BME280;65301;46.666;20.110;2022-12-18T16:32:14;103107.69;;;0.38;78.14
76464;BME280;65301;46.666;20.110;2022-12-18T16:35:17;103114.03;;;0.36;79.00
76464;BME280;65301;46.666;20.110;2022-12-18T16:38:19;103119.56;;;0.33;79.02
76464;BME280;65301;46.666;20.110;2022-12-18T16:41:21;103117.94;;;0.32;78.86
76464;BME280;65301;46.666;20.110;2022-12-18T16:44:35;103122.50;;;0.30;78.64
76464;BME280;65301;46.666;20.110;2022-12-18T16:47:38;103115.75;;;0.21;79.15
76464;BME280;65301;46.666;20.110;2022-12-18T16:50:40;103127.94;;;0.20;79.40
76464;BME280;65301;46.666;20.110;2022-12-18T16:53:42;103129.91;;;0.18;80.13
76464;BME280;65301;46.666;20.110;2022-12-18T16:56:45;103123.44;;;0.14;80.78
76464;BME280;65301;46.666;20.110;2022-12-18T16:59:50;103128.16;;;0.11;80.57
76464;BME280;65301;46.666;20.110;2022-12-18T17:02:52;103136.13;;;0.09;80.33
76464;BME280;65301;46.666;20.110;2022-12-18T17:06:01;103137.59;;;0.12;80.07
76464;BME280;65301;46.666;20.110;2022-12-18T17:09:07;103131.25;;;0.14;81.01
76464;BME280;65301;46.666;20.110;2022-12-18T17:12:09;103142.41;;;0.15;80.88
76464;BME280;65301;46.666;20.110;2022-12-18T17:15:11;103141.03;;;0.04;82.31
76464;BME280;65301;46.666;20.110;2022-12-18T17:18:13;103142.81;;;0.04;80.94
76464;BME280;65301;46.666;20.110;2022-12-18T17:21:15;103144.91;;;0.08;81.13
76464;BME280;65301;46.666;20.110;2022-12-18T17:24:19;103147.34;;;0.10;81.83
76464;BME280;65301;46.666;20.110;2022-12-18T17:27:21;103143.31;;;0.07;81.13
76464;BME280;65301;46.666;20.110;2022-12-18T17:30:23;103130.97;;;0.01;81.49
76464;BME280;65301;46.666;20.110;2022-12-18T17:33:25;103124.31;;;0.07;82.32
76464;BME280;65301;46.666;20.110;2022-12-18T17:36:27;103139.25;;;0.05;81.22